Decoded Metar for KLFK (LUFKIN in TX, USA) (IATA:LFK) | Meteo·Mobile Aviation Weather
aviador You're here:

KLFK Decoded Metar

LUFKIN in TX, USA
Report Time2019-01-19 00:53:00
UTC Time2019-01-19 01:49:52
Flight Rules ifr IFR
Wind160° at 10 kt
W.Decomp.*RWY 15: 10.0 kt HW 0.9 kt RCW
RWY 07: 0.9 kt HW 10.0 kt RCW
W.Rank160° ranks 1
Current wind is above 160° avg. (7.2)
Visibility9999 m
Phenomena:N/A
Clouds:Overcast 009 Hf
Ceiling900 ft
Temp17°C (ISA +3)
Dew Point17°C (100% RH)
AAT15.8°C
QNH1008 hPa
Density Alt1,020 ft
Elevation289 ft
Report Wrong Elevation
Raw Report
KLFK 190053Z AUTO 16010KT 10SM OVC009 17/17 A2978 RMK AO2
RAE05B41E51 CIG 004V014 SLP082 P0000 T01720172=

Extra information for KLFK:More info

Metar Taf Metar & Taf Last 4 Metars F.Rules Stats Wind Profile Meteogram Temp Stats Airport Information Weather charts Add Link Nearby VenuesMetar ALERT Operation Metar Decoded Social comments

AIRNAV info for KLFK